Olenek, Russia
Current Conditions -  °F | °C
As of 5:30 PM on Sunday 23 Nov 2014 (Local Time) from UEEE Reporting Station
Clear Clear  
Wind Chill: -26°   Ceiling: Unl
Heat Index: -26°   Visibility: 6mi
Dew Point: -31°   Wind: 2mph
Humidity: 76%   Direction: 350°N
Pressure: 29.97"   Gusts: NA
Location:  68.51°N, 112.49°E
Report Text: UEEE 230830Z 35001MPS CAVOK M32/M35 Q1015 NOSIG RMK QFE75323490150
Loading
Personal Weather Stations






























Interactive Weather Map New forecast layout! Learn more

10-Day Weather Forecast

Advertisements
Track Severe Weather on mobile